createdAt,value
2018-07-31T00:01:17.132Z,38.47
2018-07-31T00:03:44.759Z,38.60
2018-07-31T00:06:17.434Z,38.78
2018-07-31T00:08:45.806Z,38.54
2018-07-31T00:11:13.380Z,37.70
2018-07-31T00:13:40.974Z,39.01
2018-07-31T00:16:08.611Z,38.29
2018-07-31T00:18:36.131Z,38.40
2018-07-31T00:21:03.812Z,37.97
2018-07-31T00:23:31.394Z,37.88
2018-07-31T00:25:58.982Z,38.39
2018-07-31T00:28:26.562Z,38.78
2018-07-31T00:30:54.152Z,38.55
2018-07-31T00:33:21.777Z,38.71
2018-07-31T00:35:49.381Z,39.00
2018-07-31T00:38:17.184Z,39.32
2018-07-31T00:40:44.830Z,39.69
2018-07-31T00:43:12.522Z,39.72
2018-07-31T00:45:40.123Z,40.67
2018-07-31T00:48:07.779Z,40.85
2018-07-31T00:50:35.400Z,41.07
2018-07-31T00:53:03.059Z,40.69
2018-07-31T00:55:30.713Z,42.15
2018-07-31T00:57:58.351Z,41.83
2018-07-31T01:00:25.948Z,41.95
2018-07-31T01:02:53.537Z,41.05
2018-07-31T01:05:21.197Z,41.26
2018-07-31T01:07:48.831Z,41.55
2018-07-31T01:10:16.519Z,41.10
2018-07-31T01:12:44.245Z,41.97
2018-07-31T01:15:11.847Z,41.07
2018-07-31T01:17:39.488Z,40.42
2018-07-31T01:20:07.105Z,40.43
2018-07-31T01:22:34.814Z,39.23
2018-07-31T01:25:02.420Z,39.27
2018-07-31T01:27:30.056Z,39.36
2018-07-31T01:29:57.670Z,40.11
2018-07-31T01:32:25.265Z,40.04
2018-07-31T01:34:52.902Z,40.59
2018-07-31T01:37:20.587Z,40.42
2018-07-31T01:39:48.182Z,41.39
2018-07-31T01:42:15.744Z,41.31
2018-07-31T01:44:43.336Z,41.28
2018-07-31T01:47:10.949Z,40.76
2018-07-31T01:49:38.539Z,40.63
2018-07-31T01:52:06.227Z,40.22
2018-07-31T01:54:33.817Z,40.79
2018-07-31T01:57:01.481Z,40.46
2018-07-31T01:59:29.118Z,39.84
2018-07-31T02:01:56.754Z,40.40
2018-07-31T02:04:24.369Z,40.51
2018-07-31T02:06:52.020Z,40.62
2018-07-31T02:09:19.618Z,40.29
2018-07-31T02:11:47.192Z,39.97
2018-07-31T02:14:14.812Z,39.89
2018-07-31T02:16:43.468Z,39.83
2018-07-31T02:19:11.036Z,39.20
2018-07-31T02:21:38.668Z,38.59
2018-07-31T02:24:06.260Z,39.33
2018-07-31T02:26:33.874Z,39.35
2018-07-31T02:29:01.516Z,39.46
2018-07-31T02:31:29.091Z,38.60
2018-07-31T02:33:56.707Z,38.73
2018-07-31T02:36:24.330Z,38.55
2018-07-31T02:38:51.955Z,38.39
2018-07-31T02:41:19.600Z,38.61
2018-07-31T02:43:47.182Z,37.92
2018-07-31T02:46:14.775Z,37.55
2018-07-31T02:48:42.421Z,37.23
2018-07-31T02:51:10.054Z,37.92
2018-07-31T02:53:37.662Z,37.84
2018-07-31T02:56:05.259Z,37.70
2018-07-31T02:58:32.893Z,37.83
2018-07-31T03:01:00.537Z,38.83
2018-07-31T03:03:28.202Z,38.43
2018-07-31T03:05:55.790Z,39.11
2018-07-31T03:08:23.414Z,39.29
2018-07-31T03:10:50.995Z,40.11
2018-07-31T03:13:18.691Z,40.01
2018-07-31T03:15:46.330Z,39.64
2018-07-31T03:18:14.190Z,40.33
2018-07-31T03:20:41.931Z,40.07
2018-07-31T03:23:09.516Z,39.14
2018-07-31T03:25:37.185Z,38.96
2018-07-31T03:28:04.879Z,39.02
2018-07-31T03:30:32.511Z,38.43
2018-07-31T03:33:00.174Z,37.55
2018-07-31T03:35:27.821Z,38.05
2018-07-31T03:37:55.435Z,37.61
2018-07-31T03:40:23.049Z,37.31
2018-07-31T03:42:50.680Z,38.29
2018-07-31T03:45:18.389Z,38.37
2018-07-31T03:47:46.043Z,38.17
2018-07-31T03:50:13.681Z,38.23
2018-07-31T03:52:41.258Z,37.95
2018-07-31T03:55:08.864Z,38.66
2018-07-31T03:57:36.518Z,38.99
2018-07-31T04:00:05.366Z,39.35
2018-07-31T04:02:33.016Z,38.72
2018-07-31T04:05:02.151Z,39.43
2018-07-31T04:07:29.765Z,39.01
2018-07-31T04:09:57.959Z,38.79
2018-07-31T04:12:25.682Z,39.34
2018-07-31T04:14:53.719Z,39.17
2018-07-31T04:17:21.436Z,38.66
2018-07-31T04:19:49.068Z,38.99
2018-07-31T04:22:16.718Z,39.18
2018-07-31T04:24:45.021Z,38.35
2018-07-31T04:27:13.788Z,37.74
2018-07-31T04:29:41.510Z,37.24
2018-07-31T04:32:09.416Z,38.21
2018-07-31T04:34:37.014Z,37.35
2018-07-31T04:37:05.008Z,37.79
2018-07-31T04:39:32.630Z,37.18
2018-07-31T04:42:00.247Z,37.05
2018-07-31T04:44:27.907Z,37.99
2018-07-31T04:46:55.593Z,38.18
2018-07-31T04:49:23.281Z,38.72
2018-07-31T04:51:50.998Z,38.98
2018-07-31T04:54:18.697Z,39.35
2018-07-31T04:56:46.379Z,39.30
2018-07-31T04:59:14.005Z,39.33
2018-07-31T05:01:41.658Z,39.46
2018-07-31T05:04:09.270Z,39.68
2018-07-31T05:06:36.955Z,39.31
2018-07-31T05:09:07.956Z,40.06
2018-07-31T05:11:35.579Z,39.28
2018-07-31T05:14:03.869Z,39.87
2018-07-31T05:16:31.537Z,39.95
2018-07-31T05:18:59.157Z,40.09
2018-07-31T05:21:26.739Z,40.32
2018-07-31T05:23:54.287Z,39.68
2018-07-31T05:26:22.067Z,40.27
2018-07-31T05:28:49.774Z,40.44
2018-07-31T05:31:17.685Z,40.11
2018-07-31T05:33:45.334Z,39.61
2018-07-31T05:36:12.987Z,39.75
2018-07-31T05:38:40.684Z,39.54
2018-07-31T05:41:08.285Z,39.28
2018-07-31T05:43:35.867Z,38.43
2018-07-31T05:46:03.512Z,38.42
2018-07-31T05:48:31.110Z,38.68
2018-07-31T05:50:58.743Z,38.20
2018-07-31T05:53:26.415Z,37.56
2018-07-31T05:55:54.071Z,37.93
2018-07-31T05:58:21.673Z,37.32
2018-07-31T06:00:49.261Z,37.68
2018-07-31T06:03:16.936Z,37.02
2018-07-31T06:05:44.642Z,37.08
2018-07-31T06:08:12.294Z,36.28
2018-07-31T06:10:39.930Z,36.30
2018-07-31T06:13:07.627Z,35.99
2018-07-31T06:15:35.315Z,35.89
2018-07-31T06:18:03.025Z,35.92
2018-07-31T06:20:30.707Z,36.13
2018-07-31T06:22:58.370Z,36.08
2018-07-31T06:25:26.057Z,35.42
2018-07-31T06:27:53.694Z,35.19
2018-07-31T06:30:21.366Z,34.55
2018-07-31T06:32:48.962Z,35.19
2018-07-31T06:35:16.693Z,34.28
2018-07-31T06:37:44.450Z,34.91
2018-07-31T06:40:12.204Z,34.48
2018-07-31T06:42:40.063Z,34.58
2018-07-31T06:45:07.786Z,33.66
2018-07-31T06:47:35.402Z,34.43
2018-07-31T06:50:03.285Z,33.62
2018-07-31T06:52:31.030Z,33.09
2018-07-31T06:54:58.702Z,33.55
2018-07-31T06:57:26.395Z,33.66
2018-07-31T06:59:54.084Z,33.04
2018-07-31T07:02:21.754Z,33.86
2018-07-31T07:04:49.432Z,33.25
2018-07-31T07:07:17.094Z,33.14
2018-07-31T07:09:44.784Z,33.37
2018-07-31T07:12:12.441Z,33.01
2018-07-31T07:14:40.059Z,32.79
2018-07-31T07:17:07.679Z,33.18
2018-07-31T07:19:35.293Z,32.94
2018-07-31T07:22:02.923Z,32.66
2018-07-31T07:24:30.551Z,32.13
2018-07-31T07:26:58.265Z,33.13
2018-07-31T07:29:26.011Z,32.10
2018-07-31T07:31:53.738Z,32.53
2018-07-31T07:34:21.374Z,32.38
2018-07-31T07:36:49.003Z,32.37
2018-07-31T07:39:16.676Z,32.11
2018-07-31T07:41:44.381Z,31.10
2018-07-31T07:44:12.034Z,31.48
2018-07-31T07:46:39.704Z,31.67
2018-07-31T07:49:07.672Z,32.38
2018-07-31T07:51:35.549Z,31.24
2018-07-31T07:54:03.256Z,31.58
2018-07-31T07:56:30.922Z,30.91
2018-07-31T07:58:58.574Z,31.29
2018-07-31T08:01:26.212Z,31.62
2018-07-31T08:03:53.877Z,31.01
2018-07-31T08:06:21.471Z,30.37
2018-07-31T08:08:49.095Z,30.47
2018-07-31T08:11:16.741Z,30.36
2018-07-31T08:13:44.361Z,30.43
2018-07-31T08:16:11.943Z,30.69
2018-07-31T08:18:39.650Z,30.70
2018-07-31T08:21:07.318Z,31.07
2018-07-31T08:23:35.025Z,29.08
2018-07-31T08:26:02.697Z,28.81
2018-07-31T08:28:30.325Z,28.18
2018-07-31T08:30:57.992Z,27.54
2018-07-31T08:33:25.723Z,26.89
2018-07-31T08:35:53.354Z,26.98
2018-07-31T08:38:21.246Z,26.39
2018-07-31T08:40:48.894Z,26.05
2018-07-31T08:43:16.512Z,26.24
2018-07-31T08:45:44.092Z,26.23
2018-07-31T08:48:11.737Z,25.97
2018-07-31T08:50:39.321Z,25.05
2018-07-31T08:53:07.016Z,25.66
2018-07-31T08:55:34.629Z,24.84
2018-07-31T08:58:02.320Z,24.92
2018-07-31T09:00:29.966Z,25.16
2018-07-31T09:02:57.637Z,23.72
2018-07-31T09:05:25.190Z,24.64
2018-07-31T09:07:52.811Z,23.84
2018-07-31T09:10:20.387Z,23.55
2018-07-31T09:12:47.977Z,23.94
2018-07-31T09:15:15.590Z,24.17
2018-07-31T09:17:43.225Z,24.20
2018-07-31T09:20:10.856Z,23.17
2018-07-31T09:22:38.441Z,24.32
2018-07-31T09:25:06.050Z,23.86
2018-07-31T09:27:33.756Z,23.99
2018-07-31T09:30:01.402Z,22.75
2018-07-31T09:32:34.741Z,22.98
2018-07-31T09:35:02.315Z,23.23
2018-07-31T09:37:29.915Z,22.50
2018-07-31T09:39:57.612Z,22.52
2018-07-31T09:42:25.203Z,22.44
2018-07-31T09:44:52.799Z,22.24
2018-07-31T09:47:20.523Z,22.27
2018-07-31T09:49:48.076Z,22.71
2018-07-31T09:52:15.582Z,22.05
2018-07-31T09:54:43.140Z,21.67
2018-07-31T09:57:10.809Z,22.71
2018-07-31T09:59:38.410Z,21.59
2018-07-31T10:02:06.134Z,21.62
2018-07-31T10:04:33.842Z,21.88
2018-07-31T10:07:01.399Z,22.68
2018-07-31T10:09:29.070Z,22.37
2018-07-31T10:11:56.695Z,21.78
2018-07-31T10:14:24.218Z,22.11
2018-07-31T10:16:51.802Z,21.40
2018-07-31T10:19:19.371Z,20.02
2018-07-31T10:21:47.003Z,20.98
2018-07-31T10:24:14.638Z,20.80
2018-07-31T10:26:42.237Z,20.98
2018-07-31T10:29:09.791Z,21.75
2018-07-31T10:31:37.501Z,20.64
2018-07-31T10:34:05.282Z,21.13
2018-07-31T10:36:32.878Z,21.38
2018-07-31T10:39:00.797Z,21.71
2018-07-31T10:41:28.432Z,21.68
2018-07-31T10:43:56.167Z,21.50
2018-07-31T10:46:24.035Z,20.79
2018-07-31T10:48:51.639Z,20.57
2018-07-31T10:51:19.266Z,21.17
2018-07-31T10:53:46.855Z,20.01
2018-07-31T10:56:14.446Z,20.29
2018-07-31T10:58:42.066Z,20.48
2018-07-31T11:01:09.608Z,20.00
2018-07-31T11:03:37.214Z,20.05
2018-07-31T11:06:04.850Z,20.23
2018-07-31T11:08:32.468Z,19.32
2018-07-31T11:11:00.062Z,20.28
2018-07-31T11:13:27.626Z,20.14
2018-07-31T11:15:55.215Z,19.59
2018-07-31T11:18:22.810Z,20.78
2018-07-31T11:20:50.447Z,20.37
2018-07-31T11:23:18.065Z,20.02
2018-07-31T11:25:45.682Z,19.03
2018-07-31T11:28:13.269Z,19.79
2018-07-31T11:30:40.855Z,19.76
2018-07-31T11:33:08.424Z,19.27
2018-07-31T11:35:35.967Z,19.94
2018-07-31T11:38:03.565Z,19.65
2018-07-31T11:40:31.207Z,20.20
2018-07-31T11:42:58.812Z,18.27
2018-07-31T11:45:26.366Z,19.13
2018-07-31T11:47:53.948Z,19.58
2018-07-31T11:50:21.513Z,18.50
2018-07-31T11:52:49.123Z,19.61
2018-07-31T11:55:16.749Z,17.08
2018-07-31T11:57:44.297Z,17.79
2018-07-31T12:00:12.490Z,18.33
2018-07-31T12:02:40.186Z,16.98
2018-07-31T12:05:08.142Z,17.39
2018-07-31T12:07:35.829Z,17.09
2018-07-31T12:10:04.299Z,16.59
2018-07-31T12:12:31.880Z,16.77
2018-07-31T12:14:59.465Z,17.54
2018-07-31T12:17:27.057Z,15.92
2018-07-31T12:19:54.643Z,16.80
2018-07-31T12:22:22.226Z,16.91
2018-07-31T12:24:50.115Z,15.47
2018-07-31T12:27:17.741Z,15.33
2018-07-31T12:29:45.365Z,16.95
2018-07-31T12:32:13.013Z,17.19
2018-07-31T12:34:40.697Z,16.75
2018-07-31T12:37:08.261Z,17.59
2018-07-31T12:39:35.907Z,17.72
2018-07-31T12:42:03.525Z,16.79
2018-07-31T12:44:31.142Z,16.75
2018-07-31T12:46:58.724Z,16.56
2018-07-31T12:49:26.326Z,16.16
2018-07-31T12:51:53.966Z,15.25
2018-07-31T12:54:21.577Z,15.46
2018-07-31T12:56:49.117Z,15.24
2018-07-31T12:59:16.719Z,15.35
2018-07-31T13:01:44.341Z,15.16
2018-07-31T13:04:12.013Z,14.31
2018-07-31T13:06:39.747Z,14.54
2018-07-31T13:09:07.817Z,13.69
2018-07-31T13:11:35.477Z,13.56
2018-07-31T13:14:03.223Z,13.86
2018-07-31T13:16:30.769Z,14.19
2018-07-31T13:18:58.647Z,13.96
2018-07-31T13:21:26.255Z,14.17
2018-07-31T13:23:53.790Z,14.31
2018-07-31T13:26:21.316Z,13.49
2018-07-31T13:28:48.935Z,13.71
2018-07-31T13:31:16.540Z,12.89
2018-07-31T13:33:44.206Z,12.94
2018-07-31T13:36:11.778Z,12.88
2018-07-31T13:38:39.422Z,12.52
2018-07-31T13:41:07.506Z,12.70
2018-07-31T13:43:35.680Z,12.52
2018-07-31T13:46:03.402Z,12.46
2018-07-31T13:48:30.927Z,12.71
2018-07-31T13:50:58.489Z,13.35
2018-07-31T13:53:26.109Z,13.25
2018-07-31T13:55:53.710Z,13.19
2018-07-31T13:58:21.364Z,13.13
2018-07-31T14:00:48.922Z,12.54
2018-07-31T14:03:16.526Z,12.76
2018-07-31T14:05:44.088Z,12.45
2018-07-31T14:08:11.659Z,11.91
2018-07-31T14:10:39.222Z,12.31
2018-07-31T14:13:06.830Z,12.19
2018-07-31T14:15:34.491Z,11.86
2018-07-31T14:18:02.129Z,11.71
2018-07-31T14:20:29.775Z,11.19
2018-07-31T14:22:57.400Z,10.77
2018-07-31T14:25:24.959Z,10.65
2018-07-31T14:27:52.575Z,10.52
2018-07-31T14:30:20.167Z,10.54
2018-07-31T14:32:47.796Z,11.20
2018-07-31T14:35:15.423Z,10.90
2018-07-31T14:37:43.024Z,10.15
2018-07-31T14:40:10.684Z,10.28
2018-07-31T14:42:38.276Z,10.62
2018-07-31T14:45:05.920Z,9.75
2018-07-31T14:47:33.500Z,9.98
2018-07-31T14:50:01.246Z,10.59
2018-07-31T14:52:28.848Z,10.61
2018-07-31T14:54:57.230Z,10.66
2018-07-31T14:57:24.812Z,10.95
2018-07-31T14:59:52.498Z,11.48
2018-07-31T15:02:20.042Z,11.31
2018-07-31T15:04:47.631Z,11.37
2018-07-31T15:07:15.313Z,11.67
2018-07-31T15:09:42.920Z,10.80
2018-07-31T15:12:10.557Z,10.74
2018-07-31T15:14:38.176Z,11.09
2018-07-31T15:17:05.821Z,10.49
2018-07-31T15:19:33.487Z,10.44
2018-07-31T15:22:01.073Z,9.94
2018-07-31T15:24:28.682Z,10.18
2018-07-31T15:26:56.252Z,9.95
2018-07-31T15:29:23.875Z,10.17
2018-07-31T15:31:51.469Z,9.69
2018-07-31T15:34:19.106Z,8.96
2018-07-31T15:36:46.762Z,9.97
2018-07-31T15:39:14.376Z,10.17
2018-07-31T15:41:41.983Z,10.79
2018-07-31T15:44:10.133Z,9.86
2018-07-31T15:46:37.777Z,10.06
2018-07-31T15:49:05.433Z,10.05
2018-07-31T15:51:33.123Z,10.68
2018-07-31T15:54:00.736Z,9.75
2018-07-31T15:56:28.723Z,9.19
2018-07-31T15:58:56.547Z,9.68
2018-07-31T16:01:24.361Z,9.67
2018-07-31T16:03:52.073Z,10.04
2018-07-31T16:06:19.723Z,9.79
2018-07-31T16:08:47.392Z,10.14
2018-07-31T16:11:15.115Z,9.89
2018-07-31T16:13:42.742Z,9.40
2018-07-31T16:16:10.436Z,9.34
2018-07-31T16:18:38.124Z,9.91
2018-07-31T16:21:06.107Z,9.86
2018-07-31T16:23:33.849Z,9.73
2018-07-31T16:26:01.606Z,10.28
2018-07-31T16:28:29.090Z,10.87
2018-07-31T16:30:56.676Z,10.35
2018-07-31T16:33:24.266Z,10.39
2018-07-31T16:35:51.864Z,10.87
2018-07-31T16:38:19.504Z,10.89
2018-07-31T16:40:47.068Z,11.14
2018-07-31T16:43:14.650Z,10.96
2018-07-31T16:45:42.222Z,10.72
2018-07-31T16:48:09.896Z,11.21
2018-07-31T16:50:37.684Z,10.88
2018-07-31T16:53:05.502Z,10.97
2018-07-31T16:55:33.201Z,10.36
2018-07-31T16:58:00.775Z,10.29
2018-07-31T17:00:28.389Z,10.56
2018-07-31T17:02:56.021Z,10.50
2018-07-31T17:05:23.701Z,10.60
2018-07-31T17:07:51.689Z,10.57
2018-07-31T17:10:19.289Z,10.36
2018-07-31T17:12:46.820Z,10.32
2018-07-31T17:15:14.371Z,10.65
2018-07-31T17:17:42.125Z,10.74
2018-07-31T17:20:09.669Z,11.41
2018-07-31T17:22:37.335Z,10.74
2018-07-31T17:25:05.086Z,10.66
2018-07-31T17:27:32.908Z,10.81
2018-07-31T17:30:00.577Z,11.56
2018-07-31T17:32:28.254Z,11.29
2018-07-31T17:34:55.828Z,11.10
2018-07-31T17:37:23.486Z,10.88
2018-07-31T17:39:51.102Z,10.86
2018-07-31T17:42:18.895Z,11.15
2018-07-31T17:44:46.501Z,11.51
2018-07-31T17:47:14.182Z,11.66
2018-07-31T17:49:42.007Z,11.83
2018-07-31T17:52:09.689Z,12.39
2018-07-31T17:54:37.306Z,12.80
2018-07-31T17:57:04.967Z,13.46
2018-07-31T17:59:32.617Z,12.91
2018-07-31T18:02:00.317Z,13.32
2018-07-31T18:04:28.524Z,12.46
2018-07-31T18:06:56.351Z,12.51
2018-07-31T18:09:24.813Z,12.63
2018-07-31T18:11:52.717Z,13.18
2018-07-31T18:14:20.519Z,13.49
2018-07-31T18:16:48.285Z,13.63
2018-07-31T18:19:15.981Z,14.03
2018-07-31T18:21:43.681Z,14.25
2018-07-31T18:24:11.374Z,21.25
2018-07-31T18:26:39.084Z,16.76
2018-07-31T18:29:06.810Z,25.41
2018-07-31T18:31:34.474Z,26.42
2018-07-31T18:34:02.238Z,24.51
2018-07-31T18:36:30.033Z,18.64
2018-07-31T18:38:57.722Z,23.89
2018-07-31T18:41:25.414Z,20.59
2018-07-31T18:43:52.980Z,26.49
2018-07-31T18:46:20.582Z,26.78
2018-07-31T18:48:48.337Z,23.60
2018-07-31T18:51:16.272Z,25.08
2018-07-31T18:53:43.872Z,27.36
2018-07-31T18:56:11.589Z,24.13
2018-07-31T18:58:39.308Z,27.49
2018-07-31T19:01:06.971Z,26.87
2018-07-31T19:03:34.770Z,25.58
2018-07-31T19:06:02.457Z,26.19
2018-07-31T19:08:30.203Z,26.89
2018-07-31T19:10:57.887Z,25.19
2018-07-31T19:13:25.635Z,25.46
2018-07-31T19:15:53.294Z,24.29
2018-07-31T19:18:21.036Z,23.42
2018-07-31T19:20:48.672Z,21.69
2018-07-31T19:23:16.392Z,27.83
2018-07-31T19:25:44.072Z,25.79
2018-07-31T19:28:12.533Z,22.11
2018-07-31T19:30:40.149Z,27.28
2018-07-31T19:33:07.789Z,24.19
2018-07-31T19:35:35.506Z,22.38
2018-07-31T19:38:03.314Z,25.65
2018-07-31T19:40:31.023Z,22.80
2018-07-31T19:42:58.670Z,28.42
2018-07-31T19:45:26.404Z,25.41
2018-07-31T19:47:54.060Z,24.52
2018-07-31T19:50:22.158Z,23.32
2018-07-31T19:52:49.742Z,23.81
2018-07-31T19:55:17.418Z,23.76
2018-07-31T19:57:45.179Z,25.20
2018-07-31T20:00:12.900Z,25.45
2018-07-31T20:02:40.553Z,24.96
2018-07-31T20:05:08.401Z,24.38
2018-07-31T20:07:36.353Z,25.69
2018-07-31T20:10:04.960Z,24.88
2018-07-31T20:12:32.587Z,25.15
2018-07-31T20:15:00.295Z,25.95
2018-07-31T20:17:27.883Z,25.61
2018-07-31T20:19:55.450Z,25.46
2018-07-31T20:22:23.326Z,26.78
2018-07-31T20:24:50.995Z,26.84
2018-07-31T20:27:18.836Z,27.75
2018-07-31T20:29:46.446Z,27.61
2018-07-31T20:32:14.037Z,27.75
2018-07-31T20:34:42.028Z,26.56
2018-07-31T20:37:09.620Z,25.56
2018-07-31T20:39:37.254Z,25.30
2018-07-31T20:42:04.915Z,26.44
2018-07-31T20:44:32.544Z,28.37
2018-07-31T20:47:00.222Z,30.36
2018-07-31T20:49:27.854Z,26.58
2018-07-31T20:51:55.496Z,26.94
2018-07-31T20:54:23.273Z,28.80
2018-07-31T20:56:51.251Z,30.09
2018-07-31T20:59:18.867Z,30.21
2018-07-31T21:01:46.481Z,31.66
2018-07-31T21:04:14.087Z,31.45
2018-07-31T21:06:41.719Z,31.18
2018-07-31T21:09:11.051Z,30.84
2018-07-31T21:11:38.691Z,29.33
2018-07-31T21:14:06.355Z,29.04
2018-07-31T21:16:34.293Z,30.25
2018-07-31T21:19:02.051Z,30.65
2018-07-31T21:21:29.617Z,27.85
2018-07-31T21:23:57.186Z,29.08
2018-07-31T21:26:24.763Z,28.65
2018-07-31T21:28:52.444Z,28.60
2018-07-31T21:31:20.230Z,29.43
2018-07-31T21:33:47.931Z,29.61
2018-07-31T21:36:15.551Z,29.22
2018-07-31T21:38:43.192Z,30.79
2018-07-31T21:41:10.789Z,30.86
2018-07-31T21:43:39.525Z,31.55
2018-07-31T21:46:07.274Z,31.34
2018-07-31T21:48:34.895Z,32.25
2018-07-31T21:51:02.537Z,30.39
2018-07-31T21:53:30.172Z,30.42
2018-07-31T21:55:57.788Z,30.64
2018-07-31T21:58:25.447Z,30.32
2018-07-31T22:00:58.851Z,31.07
2018-07-31T22:03:26.429Z,32.00
2018-07-31T22:05:54.181Z,31.45
2018-07-31T22:08:21.715Z,31.85
2018-07-31T22:10:49.439Z,32.40
2018-07-31T22:13:17.156Z,32.70
2018-07-31T22:15:44.820Z,32.71
2018-07-31T22:18:12.450Z,31.88
2018-07-31T22:20:40.202Z,33.12
2018-07-31T22:23:07.880Z,33.66
2018-07-31T22:25:35.470Z,32.81
2018-07-31T22:28:03.165Z,32.90
2018-07-31T22:30:30.832Z,33.12
2018-07-31T22:32:58.417Z,31.90
2018-07-31T22:35:26.033Z,31.86
2018-07-31T22:37:53.581Z,31.99
2018-07-31T22:40:21.151Z,32.10
2018-07-31T22:42:48.739Z,32.83
2018-07-31T22:45:16.346Z,33.12
2018-07-31T22:47:43.938Z,33.37
2018-07-31T22:50:11.546Z,33.69
2018-07-31T22:52:39.156Z,34.81
2018-07-31T22:55:06.764Z,34.36
2018-07-31T22:57:34.373Z,34.78
2018-07-31T23:00:02.017Z,34.57
2018-07-31T23:02:29.632Z,33.95
2018-07-31T23:04:57.188Z,35.48
2018-07-31T23:07:24.968Z,34.84
2018-07-31T23:10:02.343Z,34.99
2018-07-31T23:15:07.286Z,35.51
2018-07-31T23:17:34.962Z,34.00
2018-07-31T23:20:03.722Z,35.30
2018-07-31T23:22:46.920Z,35.04
2018-07-31T23:25:14.514Z,34.00
2018-07-31T23:27:42.147Z,34.14
2018-07-31T23:30:10.047Z,36.13
2018-07-31T23:32:38.018Z,36.48
2018-07-31T23:35:05.999Z,35.13
2018-07-31T23:37:33.608Z,36.47
2018-07-31T23:40:02.115Z,35.47
2018-07-31T23:42:30.414Z,35.05
2018-07-31T23:44:58.012Z,34.84
2018-07-31T23:47:26.555Z,34.90
2018-07-31T23:49:54.328Z,35.76
2018-07-31T23:52:22.007Z,35.53
2018-07-31T23:54:50.262Z,35.77
2018-07-31T23:57:17.865Z,37.13
2018-07-31T23:59:45.604Z,36.57
